createdAt,value
2019-02-06T00:01:07.055Z,27.87
2019-02-06T00:03:35.417Z,28.50
2019-02-06T00:06:04.609Z,27.40
2019-02-06T00:08:32.837Z,26.33
2019-02-06T00:11:01.138Z,27.80
2019-02-06T00:13:29.986Z,26.53
2019-02-06T00:15:58.238Z,27.90
2019-02-06T00:18:27.241Z,26.80
2019-02-06T00:20:55.447Z,27.27
2019-02-06T00:23:23.635Z,26.10
2019-02-06T00:25:52.019Z,26.37
2019-02-06T00:28:20.151Z,26.60
2019-02-06T00:30:48.657Z,26.70
2019-02-06T00:33:17.009Z,25.13
2019-02-06T00:35:45.151Z,26.57
2019-02-06T00:38:13.298Z,26.87
2019-02-06T00:40:41.684Z,26.57
2019-02-06T00:43:09.964Z,27.20
2019-02-06T00:45:38.203Z,29.03
2019-02-06T00:48:06.432Z,25.93
2019-02-06T00:50:34.586Z,25.93
2019-02-06T00:53:02.737Z,26.47
2019-02-06T00:55:31.169Z,27.97
2019-02-06T00:57:59.429Z,28.10
2019-02-06T01:00:27.622Z,27.07
2019-02-06T01:02:56.143Z,27.10
2019-02-06T01:05:24.354Z,27.00
2019-02-06T01:07:52.505Z,27.07
2019-02-06T01:10:21.355Z,26.87
2019-02-06T01:12:49.606Z,26.70
2019-02-06T01:15:17.781Z,26.73
2019-02-06T01:17:46.026Z,29.90
2019-02-06T01:20:15.415Z,29.20
2019-02-06T01:22:43.627Z,28.67
2019-02-06T01:25:12.986Z,27.13
2019-02-06T01:27:41.122Z,28.77
2019-02-06T01:30:11.465Z,29.37
2019-02-06T01:32:39.802Z,30.57
2019-02-06T01:35:09.556Z,30.10
2019-02-06T01:37:37.808Z,30.97
2019-02-06T01:40:07.223Z,29.63
2019-02-06T01:42:35.422Z,28.57
2019-02-06T01:45:04.850Z,30.13
2019-02-06T01:47:33.035Z,29.90
2019-02-06T01:50:01.174Z,29.93
2019-02-06T01:52:29.491Z,30.20
2019-02-06T01:54:57.649Z,29.00
2019-02-06T01:57:25.789Z,30.17
2019-02-06T01:59:53.911Z,31.53
2019-02-06T02:02:22.237Z,28.27
2019-02-06T02:04:50.424Z,29.80
2019-02-06T02:07:18.650Z,27.87
2019-02-06T02:09:47.181Z,26.83
2019-02-06T02:12:15.441Z,26.67
2019-02-06T02:14:43.632Z,25.83
2019-02-06T02:17:11.959Z,25.37
2019-02-06T02:19:40.085Z,25.93
2019-02-06T02:22:08.301Z,25.90
2019-02-06T02:24:36.926Z,26.70
2019-02-06T02:27:05.410Z,27.13
2019-02-06T02:29:33.564Z,26.77
2019-02-06T02:32:01.991Z,25.30
2019-02-06T02:34:30.160Z,25.40
2019-02-06T02:36:58.331Z,25.33
2019-02-06T02:39:26.724Z,25.93
2019-02-06T02:41:54.905Z,25.23
2019-02-06T02:44:23.157Z,27.13
2019-02-06T02:46:51.538Z,25.30
2019-02-06T02:49:19.691Z,25.70
2019-02-06T02:51:47.869Z,26.00
2019-02-06T02:54:16.415Z,25.37
2019-02-06T02:56:44.546Z,26.80
2019-02-06T02:59:12.970Z,27.00
2019-02-06T03:01:45.708Z,27.30
2019-02-06T03:04:15.545Z,28.10
2019-02-06T03:06:43.790Z,26.17
2019-02-06T03:09:12.203Z,26.50
2019-02-06T03:11:40.642Z,26.60
2019-02-06T03:14:08.782Z,27.50
2019-02-06T03:16:37.020Z,25.53
2019-02-06T03:19:05.226Z,26.60
2019-02-06T03:21:33.335Z,27.53
2019-02-06T03:24:01.694Z,26.53
2019-02-06T03:26:29.872Z,25.97
2019-02-06T03:28:58.099Z,25.70
2019-02-06T03:31:26.767Z,26.60
2019-02-06T03:33:54.910Z,23.87
2019-02-06T03:36:23.090Z,26.13
2019-02-06T03:38:51.427Z,26.13
2019-02-06T03:41:19.583Z,25.87
2019-02-06T03:43:47.771Z,25.00
2019-02-06T03:46:15.927Z,25.77
2019-02-06T03:48:44.345Z,25.30
2019-02-06T03:51:12.482Z,27.47
2019-02-06T03:53:40.952Z,25.20
2019-02-06T03:56:09.139Z,25.60
2019-02-06T03:58:37.327Z,26.37
2019-02-06T04:01:05.650Z,25.60
2019-02-06T04:03:33.807Z,23.63
2019-02-06T04:06:02.210Z,23.37
2019-02-06T04:08:30.455Z,21.50
2019-02-06T04:10:58.993Z,23.27
2019-02-06T04:13:27.227Z,21.80
2019-02-06T04:15:55.886Z,23.93
2019-02-06T04:18:24.029Z,23.23
2019-02-06T04:20:52.174Z,24.10
2019-02-06T04:23:20.399Z,22.70
2019-02-06T04:25:48.536Z,24.30
2019-02-06T04:28:16.712Z,22.77
2019-02-06T04:30:45.071Z,24.90
2019-02-06T04:33:13.394Z,24.53
2019-02-06T04:35:41.625Z,24.57
2019-02-06T04:38:10.272Z,24.33
2019-02-06T04:40:38.438Z,23.83
2019-02-06T04:43:06.569Z,23.60
2019-02-06T04:45:34.825Z,23.67
2019-02-06T04:48:02.977Z,23.10
2019-02-06T04:50:31.128Z,23.67
2019-02-06T04:52:59.283Z,23.33
2019-02-06T04:55:27.810Z,24.60
2019-02-06T04:57:55.956Z,24.40
2019-02-06T05:00:27.587Z,23.33
2019-02-06T05:02:55.737Z,23.83
2019-02-06T05:05:23.880Z,24.00
2019-02-06T05:07:52.097Z,24.00
2019-02-06T05:10:20.338Z,23.23
2019-02-06T05:12:49.155Z,25.10
2019-02-06T05:15:17.939Z,24.77
2019-02-06T05:17:46.178Z,25.03
2019-02-06T05:20:18.877Z,23.90
2019-02-06T05:22:47.195Z,25.13
2019-02-06T05:25:15.502Z,24.70
2019-02-06T05:27:43.920Z,25.20
2019-02-06T05:30:12.487Z,24.83
2019-02-06T05:32:42.945Z,24.43
2019-02-06T05:35:10.604Z,24.57
2019-02-06T05:37:39.120Z,26.10
2019-02-06T05:40:08.823Z,26.70
2019-02-06T05:42:37.274Z,28.53
2019-02-06T05:45:07.224Z,26.93
2019-02-06T05:47:35.371Z,26.53
2019-02-06T05:50:04.682Z,29.70
2019-02-06T05:52:32.846Z,31.77
2019-02-06T05:55:04.288Z,29.63
2019-02-06T05:59:52.860Z,27.47
2019-02-06T06:02:21.492Z,28.57
2019-02-06T06:04:49.654Z,30.07
2019-02-06T06:07:17.914Z,28.27
2019-02-06T06:09:46.117Z,28.93
2019-02-06T06:12:14.348Z,28.40
2019-02-06T06:15:01.844Z,29.30
2019-02-06T06:17:30.154Z,28.10
2019-02-06T06:19:58.334Z,28.83
2019-02-06T06:22:26.760Z,29.27
2019-02-06T06:24:54.899Z,30.50
2019-02-06T06:27:23.037Z,28.30
2019-02-06T06:29:51.209Z,29.60
2019-02-06T06:32:19.365Z,29.13
2019-02-06T06:34:47.560Z,29.60
2019-02-06T06:37:15.751Z,28.17
2019-02-06T06:39:44.031Z,28.50
2019-02-06T06:42:12.197Z,27.80
2019-02-06T06:44:40.418Z,28.43
2019-02-06T06:47:08.558Z,29.40
2019-02-06T06:49:37.065Z,30.27
2019-02-06T06:52:05.405Z,31.33
2019-02-06T06:54:33.589Z,31.53
2019-02-06T06:57:01.737Z,34.07
2019-02-06T06:59:29.940Z,34.13
2019-02-06T07:01:58.192Z,33.10
2019-02-06T07:04:26.317Z,31.63
2019-02-06T07:06:55.117Z,34.40
2019-02-06T07:09:23.249Z,35.57
2019-02-06T07:11:51.433Z,32.57
2019-02-06T07:14:19.722Z,35.27
2019-02-06T07:16:47.915Z,35.10
2019-02-06T07:19:16.256Z,37.43
2019-02-06T07:21:44.733Z,36.77
2019-02-06T07:24:12.878Z,39.47
2019-02-06T07:26:41.017Z,35.80
2019-02-06T07:29:09.170Z,36.40
2019-02-06T07:31:37.353Z,34.27
2019-02-06T07:34:05.597Z,33.83
2019-02-06T07:39:26.405Z,38.87
2019-02-06T07:41:54.586Z,38.23
2019-02-06T07:44:22.785Z,38.80
2019-02-06T07:46:51.037Z,36.83
2019-02-06T07:49:19.170Z,37.60
2019-02-06T07:51:50.403Z,35.70
2019-02-06T07:54:17.571Z,37.80
2019-02-06T07:59:26.143Z,37.67
2019-02-06T08:01:54.306Z,38.67
2019-02-06T08:04:22.525Z,37.77
2019-02-06T08:06:50.772Z,37.70
2019-02-06T08:09:18.916Z,38.10
2019-02-06T08:11:47.165Z,36.90
2019-02-06T08:14:15.433Z,36.80
2019-02-06T08:16:43.618Z,39.23
2019-02-06T08:19:11.803Z,37.57
2019-02-06T08:21:40.247Z,37.40
2019-02-06T08:24:08.426Z,33.73
2019-02-06T08:26:36.593Z,31.70
2019-02-06T08:29:04.826Z,31.50
2019-02-06T08:31:33.018Z,31.67
2019-02-06T08:34:01.205Z,29.00
2019-02-06T08:36:29.717Z,27.83
2019-02-06T08:38:58.137Z,30.83
2019-02-06T08:41:26.269Z,27.60
2019-02-06T08:43:54.422Z,25.77
2019-02-06T08:46:22.562Z,27.27
2019-02-06T08:48:50.715Z,27.87
2019-02-06T08:51:18.952Z,28.17
2019-02-06T08:53:47.071Z,27.40
2019-02-06T08:56:15.416Z,28.20
2019-02-06T08:58:43.726Z,29.03
2019-02-06T09:01:12.048Z,29.00
2019-02-06T09:03:40.199Z,29.87
2019-02-06T09:06:08.655Z,28.83
2019-02-06T09:11:00.016Z,23.83
2019-02-06T09:13:28.530Z,23.50
2019-02-06T09:15:56.716Z,26.27
2019-02-06T09:18:25.061Z,25.00
2019-02-06T09:20:53.204Z,22.53
2019-02-06T09:23:21.380Z,23.13
2019-02-06T09:25:49.679Z,24.00
2019-02-06T09:28:17.828Z,23.00
2019-02-06T09:30:46.361Z,21.03
2019-02-06T09:33:14.647Z,21.60
2019-02-06T09:35:42.854Z,22.37
2019-02-06T09:38:11.092Z,22.13
2019-02-06T09:40:58.827Z,24.63
2019-02-06T09:43:27.645Z,22.33
2019-02-06T09:45:57.146Z,24.53
2019-02-06T09:48:25.406Z,24.13
2019-02-06T09:50:53.566Z,23.83
2019-02-06T09:53:21.752Z,24.40
2019-02-06T09:55:51.340Z,24.40
2019-02-06T09:58:19.962Z,24.10
2019-02-06T10:00:48.354Z,23.93
2019-02-06T10:03:16.531Z,23.10
2019-02-06T10:05:44.708Z,21.80
2019-02-06T10:08:12.838Z,22.03
2019-02-06T10:10:41.223Z,22.77
2019-02-06T10:13:09.397Z,23.67
2019-02-06T10:15:38.195Z,23.50
2019-02-06T10:18:07.169Z,23.63
2019-02-06T10:20:39.635Z,22.93
2019-02-06T10:23:08.161Z,22.53
2019-02-06T10:25:38.199Z,25.00
2019-02-06T10:28:06.442Z,22.63
2019-02-06T10:30:39.153Z,23.27
2019-02-06T10:33:07.353Z,24.67
2019-02-06T10:35:35.542Z,23.50
2019-02-06T10:38:04.629Z,25.37
2019-02-06T10:40:33.097Z,24.80
2019-02-06T10:43:01.538Z,25.73
2019-02-06T10:45:49.364Z,24.70
2019-02-06T10:48:17.514Z,24.80
2019-02-06T10:50:46.621Z,22.73
2019-02-06T10:53:14.934Z,20.77
2019-02-06T10:55:43.077Z,19.97
2019-02-06T10:58:11.422Z,20.30
2019-02-06T11:00:59.271Z,19.97
2019-02-06T11:03:27.558Z,20.43
2019-02-06T11:05:55.892Z,19.30
2019-02-06T11:08:24.213Z,20.33
2019-02-06T11:10:52.442Z,19.87
2019-02-06T11:13:20.626Z,21.07
2019-02-06T11:15:49.110Z,23.47
2019-02-06T11:18:17.271Z,23.40
2019-02-06T11:20:45.478Z,23.77
2019-02-06T11:23:13.829Z,23.83
2019-02-06T11:25:41.994Z,24.40
2019-02-06T11:28:10.319Z,26.50
2019-02-06T11:30:39.604Z,25.87
2019-02-06T11:33:08.094Z,25.57
2019-02-06T11:35:36.368Z,26.60
2019-02-06T11:38:05.388Z,26.43
2019-02-06T11:40:33.633Z,27.17
2019-02-06T11:43:01.849Z,28.13
2019-02-06T11:45:33.680Z,27.67
2019-02-06T11:48:21.318Z,28.73
2019-02-06T11:51:14.873Z,27.40
2019-02-06T11:53:43.258Z,27.10
2019-02-06T11:56:11.540Z,27.93
2019-02-06T11:58:59.121Z,28.00
2019-02-06T12:01:47.308Z,25.10
2019-02-06T12:04:15.727Z,26.63
2019-02-06T12:06:43.979Z,27.17
2019-02-06T12:09:12.378Z,29.27
2019-02-06T12:11:40.800Z,28.23
2019-02-06T12:14:08.931Z,26.43
2019-02-06T12:16:37.127Z,26.47
2019-02-06T12:19:05.515Z,27.60
2019-02-06T12:21:33.753Z,27.73
2019-02-06T12:24:02.040Z,29.53
2019-02-06T12:26:30.568Z,26.23
2019-02-06T12:28:58.757Z,27.60
2019-02-06T12:31:26.917Z,26.70
2019-02-06T12:33:55.177Z,24.67
2019-02-06T12:36:23.437Z,25.57
2019-02-06T12:38:53.875Z,25.00
2019-02-06T12:41:41.010Z,25.50
2019-02-06T12:44:09.419Z,25.23
2019-02-06T12:46:37.643Z,24.33
2019-02-06T12:49:06.101Z,24.73
2019-02-06T12:51:34.354Z,24.93
2019-02-06T12:54:02.602Z,23.83
2019-02-06T12:56:30.920Z,24.60
2019-02-06T12:58:59.147Z,24.83
2019-02-06T13:01:46.738Z,23.03
2019-02-06T13:04:14.928Z,22.93
2019-02-06T13:06:43.345Z,23.40
2019-02-06T13:09:11.833Z,23.07
2019-02-06T13:11:40.154Z,22.67
2019-02-06T13:14:08.405Z,21.67
2019-02-06T13:16:36.715Z,22.40
2019-02-06T13:19:04.854Z,20.63
2019-02-06T13:21:52.664Z,20.63
2019-02-06T13:24:20.846Z,20.43
2019-02-06T13:26:49.036Z,19.83
2019-02-06T13:29:17.316Z,20.20
2019-02-06T13:31:45.654Z,19.67
2019-02-06T13:34:13.870Z,19.43
2019-02-06T13:36:42.153Z,17.63
2019-02-06T13:39:10.401Z,20.33
2019-02-06T13:41:38.604Z,19.13
2019-02-06T13:44:06.946Z,20.10
2019-02-06T13:46:35.808Z,19.83
2019-02-06T13:49:04.215Z,18.80
2019-02-06T13:51:32.617Z,18.63
2019-02-06T13:54:00.888Z,19.10
2019-02-06T13:56:48.749Z,20.13
2019-02-06T13:59:42.834Z,20.17
2019-02-06T14:02:11.177Z,18.03
2019-02-06T14:04:39.397Z,18.50
2019-02-06T14:07:07.547Z,17.23
2019-02-06T14:09:36.206Z,18.93
2019-02-06T14:12:04.414Z,18.30
2019-02-06T14:14:32.637Z,16.33
2019-02-06T14:17:01.121Z,16.47
2019-02-06T14:19:48.640Z,17.20
2019-02-06T14:22:17.882Z,17.67
2019-02-06T14:24:46.305Z,17.80
2019-02-06T14:27:16.074Z,17.47
2019-02-06T14:30:03.710Z,18.40
2019-02-06T14:32:51.650Z,17.83
2019-02-06T14:35:21.635Z,17.63
2019-02-06T14:38:09.206Z,16.73
2019-02-06T14:40:48.808Z,16.33
2019-02-06T14:43:18.554Z,17.23
2019-02-06T14:46:13.462Z,17.57
2019-02-06T14:54:19.794Z,16.33
2019-02-06T14:57:07.353Z,16.63
2019-02-06T14:59:54.914Z,16.80
2019-02-06T15:05:37.530Z,18.30
2019-02-06T15:08:13.493Z,19.80
2019-02-06T15:11:01.140Z,18.07
2019-02-06T15:13:48.643Z,18.63
2019-02-06T15:16:36.376Z,16.67
2019-02-06T15:19:08.794Z,17.50
2019-02-06T15:22:00.968Z,15.60
2019-02-06T15:24:30.698Z,16.93
2019-02-06T15:27:03.294Z,15.03
2019-02-06T15:29:36.075Z,14.50
2019-02-06T15:32:23.648Z,16.30
2019-02-06T15:35:11.687Z,16.17
2019-02-06T15:40:57.236Z,14.47
2019-02-06T15:43:50.009Z,15.57
2019-02-06T15:46:26.423Z,15.80
2019-02-06T15:49:13.988Z,15.73
2019-02-06T15:51:43.716Z,14.77
2019-02-06T15:57:20.466Z,17.30
2019-02-06T16:00:12.422Z,16.80
2019-02-06T16:03:00.097Z,16.53
2019-02-06T16:05:49.475Z,16.17
2019-02-06T16:08:37.183Z,16.97
2019-02-06T16:11:25.072Z,16.83
2019-02-06T16:13:57.717Z,17.73
2019-02-06T16:16:36.976Z,17.00
2019-02-06T16:19:12.646Z,17.40
2019-02-06T16:21:52.795Z,16.80
2019-02-06T16:24:34.714Z,17.27
2019-02-06T16:27:24.084Z,17.17
2019-02-06T16:30:11.559Z,17.67
2019-02-06T16:32:53.593Z,19.03
2019-02-06T16:35:35.330Z,19.00
2019-02-06T16:38:14.250Z,19.07
2019-02-06T16:41:19.782Z,20.23
2019-02-06T16:44:07.338Z,17.40
2019-02-06T16:46:57.857Z,18.03
2019-02-06T16:49:33.656Z,18.00
2019-02-06T16:52:21.255Z,19.47
2019-02-06T16:55:08.787Z,19.20
2019-02-06T16:57:44.682Z,17.50
2019-02-06T17:00:32.166Z,19.77
2019-02-06T17:03:17.417Z,19.47
2019-02-06T17:05:53.046Z,18.97
2019-02-06T17:08:40.599Z,16.30
2019-02-06T17:11:10.288Z,16.60
2019-02-06T17:13:43.000Z,16.43
2019-02-06T17:16:30.679Z,17.07
2019-02-06T17:19:22.735Z,18.00
2019-02-06T17:22:10.549Z,16.57
2019-02-06T17:24:46.400Z,18.50
2019-02-06T17:27:16.152Z,15.33
2019-02-06T17:29:51.889Z,15.97
2019-02-06T17:32:31.028Z,16.47
2019-02-06T17:35:06.876Z,18.70
2019-02-06T17:37:36.630Z,17.53
2019-02-06T17:40:12.214Z,18.37
2019-02-06T17:43:16.333Z,17.90
2019-02-06T17:49:01.116Z,17.47
2019-02-06T17:51:48.971Z,16.23
2019-02-06T17:54:19.030Z,17.50
2019-02-06T17:59:55.589Z,15.87
2019-02-06T18:02:23.738Z,15.70
2019-02-06T18:04:51.892Z,14.17
2019-02-06T18:07:20.135Z,16.27
2019-02-06T18:09:48.266Z,14.37
2019-02-06T18:12:25.965Z,15.90
2019-02-06T18:14:46.421Z,17.17
2019-02-06T18:17:14.940Z,16.77
2019-02-06T18:19:43.154Z,16.30
2019-02-06T18:22:11.910Z,17.53
2019-02-06T18:24:40.110Z,16.43
2019-02-06T18:27:08.251Z,16.47
2019-02-06T18:29:36.523Z,13.23
2019-02-06T18:32:04.735Z,12.83
2019-02-06T18:34:32.873Z,14.20
2019-02-06T18:37:01.366Z,13.80
2019-02-06T18:39:29.508Z,15.70
2019-02-06T18:41:57.650Z,15.37
2019-02-06T18:44:25.909Z,14.90
2019-02-06T18:46:54.183Z,15.07
2019-02-06T18:49:22.357Z,14.63
2019-02-06T18:51:50.735Z,16.00
2019-02-06T18:54:19.074Z,15.03
2019-02-06T18:56:47.542Z,15.90
2019-02-06T18:59:15.910Z,14.90
2019-02-06T19:01:44.122Z,16.90
2019-02-06T19:04:12.425Z,16.13
2019-02-06T19:06:40.774Z,16.03
2019-02-06T19:09:10.562Z,15.73
2019-02-06T19:11:38.892Z,16.73
2019-02-06T19:14:07.396Z,17.50
2019-02-06T19:16:35.898Z,14.97
2019-02-06T19:19:04.598Z,16.03
2019-02-06T19:21:33.114Z,16.50
2019-02-06T19:24:01.338Z,18.47
2019-02-06T19:26:29.592Z,17.67
2019-02-06T19:28:58.042Z,17.17
2019-02-06T19:31:26.293Z,18.30
2019-02-06T19:33:54.501Z,18.57
2019-02-06T19:36:23.129Z,16.40
2019-02-06T19:38:51.348Z,17.10
2019-02-06T19:41:19.563Z,17.60
2019-02-06T19:43:47.924Z,18.17
2019-02-06T19:46:16.082Z,18.43
2019-02-06T19:48:44.321Z,18.30
2019-02-06T19:51:12.601Z,15.57
2019-02-06T19:54:00.258Z,15.80
2019-02-06T19:56:28.773Z,15.73
2019-02-06T19:58:56.898Z,14.97
2019-02-06T20:01:25.097Z,15.20
2019-02-06T20:03:53.568Z,16.77
2019-02-06T20:06:41.648Z,18.07
2019-02-06T20:12:11.919Z,16.83
2019-02-06T20:14:40.426Z,17.73
2019-02-06T20:17:08.658Z,16.03
2019-02-06T20:19:56.270Z,16.63
2019-02-06T20:22:24.478Z,17.07
2019-02-06T20:24:52.653Z,17.00
2019-02-06T20:27:20.912Z,16.07
2019-02-06T20:29:49.331Z,16.67
2019-02-06T20:32:37.031Z,14.30
2019-02-06T20:35:06.780Z,15.57
2019-02-06T20:37:34.966Z,15.30
2019-02-06T20:40:04.724Z,16.23
2019-02-06T20:42:52.524Z,15.97
2019-02-06T20:45:21.155Z,15.93
2019-02-06T20:47:49.287Z,15.03
2019-02-06T20:50:18.954Z,18.47
2019-02-06T20:52:47.257Z,17.23
2019-02-06T20:55:16.086Z,15.33
2019-02-06T20:57:44.291Z,16.00
2019-02-06T21:00:14.204Z,17.37
2019-02-06T21:02:42.414Z,15.77
2019-02-06T21:05:31.547Z,18.53
2019-02-06T21:08:00.056Z,17.03
2019-02-06T21:10:29.846Z,15.33
2019-02-06T21:12:58.010Z,17.47
2019-02-06T21:15:26.187Z,17.10
2019-02-06T21:17:54.358Z,18.80
2019-02-06T21:20:23.119Z,19.27
2019-02-06T21:22:51.461Z,20.33
2019-02-06T21:25:23.612Z,18.63
2019-02-06T21:27:51.945Z,19.93
2019-02-06T21:30:39.443Z,18.37
2019-02-06T21:33:07.877Z,18.17
2019-02-06T21:35:55.576Z,19.27
2019-02-06T21:41:23.062Z,18.37
2019-02-06T21:43:51.251Z,18.53
2019-02-06T21:46:19.588Z,18.77
2019-02-06T21:48:47.821Z,18.53
2019-02-06T21:51:16.047Z,19.60
2019-02-06T21:53:44.264Z,18.20
2019-02-06T21:56:12.430Z,17.67
2019-02-06T21:58:40.845Z,20.23
2019-02-06T22:01:09.014Z,18.73
2019-02-06T22:03:37.298Z,19.30
2019-02-06T22:06:05.424Z,19.97
2019-02-06T22:08:33.596Z,20.67
2019-02-06T22:11:01.960Z,18.77
2019-02-06T22:13:30.190Z,20.63
2019-02-06T22:15:58.372Z,18.27
2019-02-06T22:18:26.690Z,17.77
2019-02-06T22:20:54.955Z,16.57
2019-02-06T22:23:23.360Z,16.63
2019-02-06T22:25:51.636Z,18.67
2019-02-06T22:28:19.942Z,17.87
2019-02-06T22:30:52.754Z,19.77
2019-02-06T22:33:21.167Z,19.07
2019-02-06T22:35:49.390Z,18.40
2019-02-06T22:38:17.534Z,17.77
2019-02-06T22:40:45.857Z,18.67
2019-02-06T22:43:14.549Z,17.47
2019-02-06T22:45:43.030Z,18.70
2019-02-06T22:48:11.366Z,20.93
2019-02-06T22:50:39.606Z,19.67
2019-02-06T22:53:07.855Z,17.90
2019-02-06T22:55:55.415Z,18.37
2019-02-06T22:58:23.899Z,17.17
2019-02-06T23:00:55.281Z,17.80
2019-02-06T23:03:42.934Z,16.43
2019-02-06T23:06:11.248Z,16.63
2019-02-06T23:08:59.226Z,16.23
2019-02-06T23:11:27.629Z,19.77
2019-02-06T23:13:55.820Z,16.53
2019-02-06T23:16:24.099Z,16.17
2019-02-06T23:18:52.266Z,16.33
2019-02-06T23:21:41.694Z,17.77
2019-02-06T23:24:09.893Z,15.77
2019-02-06T23:26:57.433Z,17.13
2019-02-06T23:29:25.914Z,16.97
2019-02-06T23:31:54.146Z,15.50
2019-02-06T23:34:22.437Z,16.07
2019-02-06T23:36:50.586Z,13.30
2019-02-06T23:39:38.129Z,13.77
2019-02-06T23:42:06.297Z,15.00
2019-02-06T23:44:34.514Z,15.13
2019-02-06T23:47:02.812Z,15.13
2019-02-06T23:49:50.348Z,15.40
2019-02-06T23:52:20.536Z,15.77
2019-02-06T23:55:08.091Z,15.87
